Latest Weather Observations for Tamworth Airport

IDN60801

Issued at 8:05 pm EST Friday 25 July 2014 (issued every 30 minutes, with the page automatically refreshed every 10 minutes)

About weather observations | Map of weather stations | Latest weather observations for NSW | Other Formats
Station Details ID: 055325 Name: TAMWORTH AIRPORT AWS Lat: -31.07 Lon: 150.84 Height: 394.9 m
Data from the previous 72 hours. | See also: Recent months at Tamworth Airport
Date/Time
EST
Temp
°C
App
Temp
°C
Dew
Point
Rel
Hum
%
Delta-T
°C
Wind Press
QNH
hPa
Press
MSL
hPa
Rain
since 9 am
mm
Dir
 
Spd
km/h
Gust
km/h
Spd
kts
Gust
kts
25/08:00pm 13.8 11.6 9.3 74 2.3 E 11 13 6 7 1024.9 1025.3 0.0
25/07:30pm 14.6 13.4 9.6 72 2.6 SE 6 7 3 4 1025.0 - 0.0
25/07:00pm 14.7 13.8 9.1 69 2.9 SSW 4 9 2 5 1024.9 1025.3 0.0
25/06:30pm 15.4 13.9 9.3 67 3.2 SSW 7 9 4 5 1024.7 - 0.0
25/06:00pm 16.1 16.0 9.5 65 3.5 CALM 0 6 0 3 1024.4 1024.8 0.0
25/05:30pm 16.7 15.5 9.6 63 3.8 W 6 7 3 4 1024.0 - 0.0
25/05:00pm 17.5 15.8 9.7 60 4.2 WNW 9 11 5 6 1023.8 1024.2 0.0
25/04:30pm 17.9 15.8 9.8 59 4.4 WNW 11 15 6 8 1023.7 - 0.0
25/04:00pm 18.3 16.5 9.4 56 4.7 WNW 9 11 5 6 1023.2 1023.7 0.0
25/03:30pm 18.5 16.1 8.7 53 5.2 W 11 13 6 7 1023.1 - 0.0
25/03:00pm 19.2 15.9 8.2 49 5.8 W 15 19 8 10 1023.0 1023.5 0.0
25/02:30pm 20.3 16.1 8.3 46 6.4 WNW 20 26 11 14 1022.9 - 0.0
25/02:00pm 21.0 16.8 7.6 42 7.0 NNW 19 26 10 14 1022.8 1023.2 0.0
25/01:30pm 22.1 17.1 7.9 40 7.6 NNW 24 33 13 18 1022.9 - 0.0
25/01:00pm 21.9 16.7 7.3 39 7.7 NNW 24 39 13 21 1023.1 1023.6 0.0
25/12:30pm 21.7 16.3 7.9 41 7.3 N 26 35 14 19 1023.6 - 0.0
25/12:00pm 20.9 14.9 7.2 41 7.1 N 28 39 15 21 1024.3 1024.7 0.0
25/11:30am 20.5 15.5 8.2 45 6.5 N 24 33 13 18 1025.1 - 0.0
25/11:00am 20.1 15.2 8.4 47 6.2 N 24 33 13 18 1025.3 1025.8 0.0
25/10:30am 19.1 14.3 8.7 51 5.5 N 24 33 13 18 1025.7 - 0.0
25/10:00am 17.7 13.7 8.3 54 4.9 NNE 19 28 10 15 1026.2 1026.6 0.0
25/09:30am 17.0 15.1 7.6 54 4.8 E 7 11 4 6 1026.5 - 0.0
25/09:00am 15.7 13.4 7.5 58 4.1 SSE 9 11 5 6 1026.3 1026.7 0.0
25/08:30am 13.6 11.2 7.2 65 3.2 S 9 13 5 7 1025.8 - 0.0
25/08:00am 10.7 8.3 6.8 77 1.9 SSE 9 13 5 7 1025.2 1025.7 0.0
25/07:30am 7.9 4.8 5.4 84 1.1 SE 11 15 6 8 1024.6 - 0.0
25/07:00am 5.9 3.4 3.6 85 1.0 SSW 6 9 3 5 1024.5 1024.9 0.0
25/06:30am 5.6 1.7 3.4 86 0.9 WSW 13 15 7 8 1023.9 - 0.0
25/06:00am 6.0 2.2 3.8 86 0.9 WSW 13 15 7 8 1023.2 1023.7 0.0
25/05:30am 7.2 3.5 4.3 82 1.3 SE 13 19 7 10 1022.7 - 0.0
25/05:00am 8.6 6.3 5.5 81 1.4 SSE 7 13 4 7 1022.9 1023.4 0.0
25/04:30am 8.4 6.1 5.5 82 1.3 S 7 11 4 6 1022.9 - 0.0
25/04:00am 8.3 5.5 5.2 81 1.4 SE 9 11 5 6 1022.5 1022.9 0.0
25/03:30am 8.1 6.3 5.2 82 1.3 S 4 7 2 4 1022.8 - 0.0
25/03:00am 8.2 5.4 5.3 82 1.3 E 9 13 5 7 1022.7 1023.1 0.0
25/02:30am 9.4 7.3 6.5 82 1.4 SSE 7 9 4 5 1022.7 - 0.0
25/02:00am 8.5 6.4 6.0 84 1.2 SSE 6 11 3 6 1022.5 1022.9 0.0
25/01:30am 6.2 3.5 3.7 84 1.1 W 7 11 4 6 1022.3 - 0.0
25/01:00am 7.1 4.5 4.4 83 1.2 S 7 11 4 6 1022.0 1022.4 0.0
25/12:30am 7.3 4.8 4.6 83 1.2 SSW 7 9 4 5 1022.1 - 0.0
25/12:00am 7.1 4.7 4.4 83 1.2 SSE 6 9 3 5 1022.2 1022.6 0.0
 
Date/Time
EST
Temp
°C
App
Temp
°C
Dew
Point
Rel
Hum
%
Delta-T
°C
Wind Press
QNH
hPa
Press
MSL
hPa
Rain
since 9 am
mm
Dir
 
Spd
km/h
Gust
km/h
Spd
kts
Gust
kts
24/11:30pm 7.2 6.0 4.7 84 1.1 CALM 0 0 0 0 1022.3 - 0.0
24/11:00pm 7.8 6.3 4.9 82 1.3 S 2 9 1 5 1022.2 1022.6 0.0
24/10:30pm 7.6 4.9 3.5 75 1.8 SSW 7 11 4 6 1022.3 - 0.0
24/10:00pm 8.5 5.2 4.7 77 1.7 S 11 15 6 8 1022.3 1022.7 0.0
24/09:30pm 9.4 7.3 5.8 78 1.7 SSE 6 11 3 6 1022.2 - 0.0
24/09:00pm 8.3 5.1 5.1 80 1.5 SSW 11 13 6 7 1022.2 1022.6 0.0
24/08:30pm 9.6 7.2 5.2 74 2.0 S 7 11 4 6 1021.9 - 0.0
24/08:00pm 12.6 10.4 6.2 65 3.1 SE 7 9 4 5 1021.6 1022.0 0.0
24/07:30pm 12.8 10.3 6.6 66 3.0 SE 9 11 5 6 1021.3 - 0.0
24/07:00pm 12.9 10.0 6.5 65 3.1 SE 11 13 6 7 1021.0 1021.4 0.0
24/06:30pm 14.1 11.6 6.7 61 3.7 ESE 9 11 5 6 1020.9 - 0.0
24/06:00pm 14.6 12.4 6.2 57 4.1 E 7 9 4 5 1020.6 1021.0 0.0
24/05:30pm 15.5 13.3 6.2 54 4.6 NE 7 9 4 5 1020.5 - 0.0
24/05:00pm 16.4 13.8 6.0 50 5.1 N 9 11 5 6 1020.2 1020.6 0.0
24/04:30pm 17.2 14.5 5.8 47 5.7 N 9 13 5 7 1020.1 - 0.0
24/04:00pm 17.7 14.3 5.9 46 5.9 N 13 17 7 9 1020.0 1020.4 0.0
24/03:30pm 17.8 14.0 5.7 45 6.0 N 15 20 8 11 1019.8 - 0.0
24/03:00pm 17.9 13.7 5.5 44 6.1 NNW 17 24 9 13 1019.9 1020.3 0.0
24/02:30pm 18.4 13.5 5.3 42 6.5 NNW 20 30 11 16 1020.0 - 0.0
24/02:00pm 18.9 15.2 6.1 43 6.4 N 15 22 8 12 1020.4 1020.8 0.0
24/01:30pm 18.3 13.8 6.2 45 6.1 N 19 28 10 15 1020.6 - 0.0
24/01:00pm 16.9 12.7 5.5 47 5.6 N 17 24 9 13 1021.1 1021.5 0.0
24/12:30pm 16.0 12.5 5.6 50 5.1 NNW 13 19 7 10 1021.6 - 0.0
24/12:00pm 15.6 12.9 5.5 51 4.9 NNW 9 13 5 7 1022.1 1022.5 0.0
24/11:30am 14.9 13.9 5.4 53 4.6 CALM 0 0 0 0 1022.7 - 0.0
24/11:00am 13.9 12.5 5.5 57 4.0 S 2 6 1 3 1023.1 1023.6 0.0
24/10:30am 13.7 11.7 6.1 60 3.7 ESE 6 9 3 5 1023.3 - 0.0
24/10:00am 13.0 10.8 6.1 63 3.3 ESE 7 9 4 5 1023.2 1023.7 0.0
24/09:30am 12.3 9.7 6.1 66 3.0 SE 9 11 5 6 1023.2 - 0.0
24/09:00am 11.2 9.0 6.3 72 2.3 SSE 7 9 4 5 1023.0 1023.5 0.0
24/08:30am 10.2 7.6 6.2 76 1.9 S 9 11 5 6 1022.5 - 0.0
24/08:00am 9.5 6.5 6.0 79 1.6 SSE 11 15 6 8 1021.9 1022.3 0.0
24/07:30am 8.2 5.7 5.0 80 1.5 SW 7 11 4 6 1021.6 - 0.0
24/07:00am 7.2 3.5 4.2 81 1.3 SSE 13 15 7 8 1021.0 1021.4 0.0
24/06:30am 7.9 4.2 4.3 78 1.6 SSE 13 17 7 9 1020.9 - 0.0
24/06:00am 8.8 4.8 4.8 76 1.8 SSE 15 15 8 8 1020.9 1021.3 0.0
24/05:30am 9.2 5.3 5.4 77 1.8 S 15 17 8 9 1020.4 - 0.0
24/05:00am 9.0 6.2 5.2 77 1.7 SSE 9 11 5 6 1020.3 1020.7 0.0
24/04:30am 9.1 5.6 5.3 77 1.8 S 13 15 7 8 1020.3 - 0.0
24/04:00am 9.0 5.8 5.2 77 1.7 SSE 11 13 6 7 1020.2 1020.6 0.0
24/03:30am 8.8 5.6 5.0 77 1.7 SSE 11 13 6 7 1020.5 - 0.0
24/03:00am 8.4 5.5 4.4 76 1.8 SSE 9 11 5 6 1020.8 1021.2 0.0
24/02:30am 8.6 6.0 4.2 74 2.0 SE 7 11 4 6 1020.8 - 0.0
24/02:00am 8.6 5.3 4.4 75 1.9 SE 11 13 6 7 1020.9 1021.3 0.0
24/01:30am 8.6 4.8 4.0 73 2.1 SSE 13 15 7 8 1021.2 - 0.0
24/01:00am 8.8 5.0 3.8 71 2.2 SSE 13 15 7 8 1021.1 1021.5 0.0
24/12:30am 8.9 4.3 3.7 70 2.3 SSE 17 17 9 9 1021.2 - 0.0
24/12:00am 8.5 4.9 2.9 68 2.4 SSE 11 15 6 8 1021.4 1021.8 0.0
 
Date/Time
EST
Temp
°C
App
Temp
°C
Dew
Point
Rel
Hum
%
Delta-T
°C
Wind Press
QNH
hPa
Press
MSL
hPa
Rain
since 9 am
mm
Dir
 
Spd
km/h
Gust
km/h
Spd
kts
Gust
kts
23/11:30pm 8.7 4.3 2.9 67 2.5 SSE 15 17 8 9 1021.4 - 0.0
23/11:00pm 9.0 5.1 3.6 69 2.4 SSE 13 17 7 9 1021.6 1022.0 0.0
23/10:30pm 8.9 6.0 2.7 65 2.7 SSW 7 13 4 7 1021.9 - 0.0
23/10:00pm 10.5 6.1 2.8 59 3.4 ESE 15 17 8 9 1021.7 1022.1 0.0
23/09:30pm 9.9 5.4 4.1 67 2.6 SSE 17 19 9 10 1021.6 - 0.0
23/09:00pm 9.9 7.2 3.6 65 2.8 ESE 7 9 4 5 1021.7 1022.1 0.0
23/08:30pm 10.5 6.7 3.8 63 3.0 S 13 15 7 8 1021.7 - 0.0
23/08:00pm 9.6 5.8 3.8 67 2.6 SSE 13 15 7 8 1021.6 1022.0 0.0
23/07:30pm 9.5 5.5 2.6 62 3.0 SE 13 15 7 8 1021.1 - 0.0
23/07:00pm 11.1 8.0 3.4 59 3.4 E 9 11 5 6 1021.1 1021.5 0.0
23/06:30pm 10.4 7.8 3.4 62 3.1 WSW 6 9 3 5 1021.3 - 0.0
23/06:00pm 12.8 9.1 2.6 50 4.6 SSW 11 13 6 7 1020.8 1021.2 0.0
23/05:30pm 13.3 10.3 2.2 47 5.0 SSW 7 9 4 5 1020.5 - 0.0
23/05:00pm 14.2 11.3 2.8 46 5.2 SW 7 9 4 5 1020.5 1020.9 0.0
23/04:30pm 14.5 11.5 2.1 43 5.6 W 7 11 4 6 1020.4 - 0.0
23/04:00pm 17.0 13.0 0.6 33 7.3 W 11 15 6 8 1020.4 1020.8 0.0
23/03:30pm 18.1 14.6 1.2 32 7.7 W 9 13 5 7 1020.2 - 0.0
23/03:00pm 17.6 15.4 1.2 33 7.4 ESE 2 9 1 5 1020.0 1020.4 0.0
23/02:30pm 17.7 14.7 0.8 32 7.6 NW 6 11 3 6 1020.3 - 0.0
23/02:00pm 17.8 14.7 1.3 33 7.5 NW 7 15 4 8 1020.5 1020.9 0.0
23/01:30pm 17.7 15.7 2.5 36 7.1 E 2 11 1 6 1021.1 - 0.0
23/01:00pm 16.9 14.0 2.5 38 6.6 E 7 11 4 6 1021.6 1022.0 0.0
23/12:30pm 16.7 14.3 4.4 44 5.9 NE 6 11 3 6 1022.1 - 0.0
23/12:00pm 15.7 13.3 4.4 47 5.4 SSW 6 11 3 6 1022.7 1023.1 0.0
23/11:30am 14.5 12.0 3.9 49 5.0 NE 6 9 3 5 1023.8 - 0.0
23/11:00am 13.9 11.3 4.2 52 4.5 SSE 7 13 4 7 1024.4 1024.8 0.0
23/10:30am 13.7 11.9 5.6 58 3.9 E 4 7 2 4 1024.9 - 0.0
23/10:00am 11.4 9.0 5.1 65 2.9 ESE 7 9 4 5 1025.1 1025.6 0.0
23/09:30am 9.9 8.0 5.1 72 2.2 NNE 4 7 2 4 1025.3 - 0.0
23/09:00am 8.4 5.5 4.4 76 1.8 ESE 9 13 5 7 1025.1 1025.6 0.4
23/08:30am 7.0 2.8 3.8 80 1.4 SE 15 17 8 9 1024.8 - 0.4
23/08:00am 5.4 3.5 3.1 85 1.0 NE 2 7 1 4 1024.5 1024.9 0.4
23/07:30am 4.5 0.9 3.0 90 0.6 SE 11 15 6 8 1024.1 - 0.4
23/07:00am 2.8 -2.3 1.0 88 0.7 SSE 17 19 9 10 1023.7 1024.1 0.4
23/06:30am 3.1 -1.9 1.5 89 0.6 SSE 17 19 9 10 1023.3 - 0.4
23/06:00am 3.3 0.2 1.5 88 0.7 SSE 7 11 4 6 1023.1 1023.6 0.4
23/05:30am 3.0 1.2 1.1 87 0.7 CALM 0 6 0 3 1022.9 - 0.4
23/05:00am 3.5 0.4 1.5 87 0.8 ESE 7 11 4 6 1022.7 1023.1 0.4
23/04:30am 4.1 -1.2 2.1 87 0.8 SSE 19 20 10 11 1022.3 - 0.4
23/04:00am 4.3 -0.5 2.5 88 0.7 SSE 17 19 9 10 1022.4 1022.8 0.4
23/03:30am 4.4 -0.8 2.6 88 0.7 SSE 19 20 10 11 1022.4 - 0.4
23/03:00am 4.7 -0.4 2.9 88 0.7 S 19 20 10 11 1022.3 1022.7 0.4
23/02:30am 4.4 0.0 2.6 88 0.7 SSE 15 17 8 9 1022.3 - 0.4
23/02:00am 5.0 0.7 3.3 89 0.7 SSE 15 17 8 9 1022.2 1022.6 0.4
23/01:30am 4.5 0.1 2.5 87 0.8 SSE 15 17 8 9 1022.5 - 0.4
23/01:00am 5.1 0.8 3.0 86 0.9 SSE 15 17 8 9 1022.9 1023.4 0.2
23/12:30am 5.4 0.7 3.1 85 1.0 SSE 17 17 9 9 1022.9 - 0.2
23/12:00am 5.4 1.5 3.3 86 0.9 S 13 15 7 8 1023.0 1023.5 0.2
 
Date/Time
EST
Temp
°C
App
Temp
°C
Dew
Point
Rel
Hum
%
Delta-T
°C
Wind Press
QNH
hPa
Press
MSL
hPa
Rain
since 9 am
mm
Dir
 
Spd
km/h
Gust
km/h
Spd
kts
Gust
kts
22/11:30pm 5.7 1.8 3.5 86 0.9 SE 13 15 7 8 1023.1 - 0.2
22/11:00pm 7.0 3.0 4.7 85 1.0 SSE 15 17 8 9 1023.0 1023.5 0.2
22/10:30pm 7.1 3.2 5.4 89 0.8 SSE 15 19 8 10 1022.9 - 0.2
22/10:00pm 6.8 3.5 4.8 87 0.9 SSE 11 13 6 7 1022.9 1023.4 0.2
22/09:30pm 7.0 4.2 5.2 88 0.8 SE 9 11 5 6 1022.7 - 0.2
22/09:00pm 7.3 4.9 5.1 86 1.0 ESE 7 11 4 6 1022.5 1022.9 0.2
22/08:30pm 7.5 3.2 5.1 85 1.1 SSE 17 19 9 10 1022.6 - 0.2

Other Formats:

Comma delimited format used in spreadsheet applications
http://www.bom.gov.au/fwo/IDN60801/IDN60801.95762.axf

JavaScript Object Notation format (JSON) in row-major order
http://www.bom.gov.au/fwo/IDN60801/IDN60801.95762.json